sensor_id;sensor_type;location;lat;lon;timestamp;P1;durP1;ratioP1;P2;durP2;ratioP2
55728;SDS011;41633;39.720;2.910;2024-02-21T00:00:48;11.63;;;3.50;;
55728;SDS011;41633;39.720;2.910;2024-02-21T00:03:14;13.63;;;4.25;;
55728;SDS011;41633;39.720;2.910;2024-02-21T00:05:41;13.20;;;4.25;;
55728;SDS011;41633;39.720;2.910;2024-02-21T00:08:07;14.50;;;4.35;;
55728;SDS011;41633;39.720;2.910;2024-02-21T00:10:33;12.77;;;3.78;;
55728;SDS011;41633;39.720;2.910;2024-02-21T00:13:00;14.07;;;4.13;;
55728;SDS011;41633;39.720;2.910;2024-02-21T00:15:27;13.95;;;4.22;;
55728;SDS011;41633;39.720;2.910;2024-02-21T00:17:54;13.05;;;4.25;;
55728;SDS011;41633;39.720;2.910;2024-02-21T00:20:21;13.50;;;4.10;;
55728;SDS011;41633;39.720;2.910;2024-02-21T00:22:50;14.55;;;3.97;;
55728;SDS011;41633;39.720;2.910;2024-02-21T00:25:17;11.88;;;3.60;;
55728;SDS011;41633;39.720;2.910;2024-02-21T00:27:46;11.50;;;3.85;;
55728;SDS011;41633;39.720;2.910;2024-02-21T00:30:12;13.27;;;3.60;;
55728;SDS011;41633;39.720;2.910;2024-02-21T00:32:39;14.23;;;3.60;;
55728;SDS011;41633;39.720;2.910;2024-02-21T00:35:06;13.65;;;3.50;;
55728;SDS011;41633;39.720;2.910;2024-02-21T00:37:34;13.98;;;3.83;;
55728;SDS011;41633;39.720;2.910;2024-02-21T00:40:02;12.57;;;3.20;;
55728;SDS011;41633;39.720;2.910;2024-02-21T00:42:31;12.10;;;3.50;;
55728;SDS011;41633;39.720;2.910;2024-02-21T00:44:58;9.45;;;2.80;;
55728;SDS011;41633;39.720;2.910;2024-02-21T00:47:26;10.45;;;3.13;;
55728;SDS011;41633;39.720;2.910;2024-02-21T00:49:53;13.40;;;3.67;;
55728;SDS011;41633;39.720;2.910;2024-02-21T00:52:20;12.18;;;3.53;;
55728;SDS011;41633;39.720;2.910;2024-02-21T00:54:48;14.40;;;3.83;;
55728;SDS011;41633;39.720;2.910;2024-02-21T00:57:15;13.23;;;3.78;;
55728;SDS011;41633;39.720;2.910;2024-02-21T00:59:42;9.77;;;3.30;;
55728;SDS011;41633;39.720;2.910;2024-02-21T01:02:13;13.38;;;4.30;;
55728;SDS011;41633;39.720;2.910;2024-02-21T01:04:39;9.70;;;3.42;;
55728;SDS011;41633;39.720;2.910;2024-02-21T01:07:06;13.70;;;4.07;;
55728;SDS011;41633;39.720;2.910;2024-02-21T01:09:34;12.35;;;3.95;;
55728;SDS011;41633;39.720;2.910;2024-02-21T01:12:01;12.40;;;4.18;;
55728;SDS011;41633;39.720;2.910;2024-02-21T01:14:27;13.02;;;4.40;;
55728;SDS011;41633;39.720;2.910;2024-02-21T01:16:55;13.80;;;5.07;;
55728;SDS011;41633;39.720;2.910;2024-02-21T01:19:21;12.90;;;4.68;;
55728;SDS011;41633;39.720;2.910;2024-02-21T01:21:48;14.27;;;4.65;;
55728;SDS011;41633;39.720;2.910;2024-02-21T01:24:16;14.45;;;4.88;;
55728;SDS011;41633;39.720;2.910;2024-02-21T01:26:43;12.45;;;4.15;;
55728;SDS011;41633;39.720;2.910;2024-02-21T01:29:12;14.88;;;4.50;;
55728;SDS011;41633;39.720;2.910;2024-02-21T01:31:40;14.05;;;4.45;;
55728;SDS011;41633;39.720;2.910;2024-02-21T01:34:08;12.98;;;4.30;;
55728;SDS011;41633;39.720;2.910;2024-02-21T01:36:36;12.23;;;3.80;;
55728;SDS011;41633;39.720;2.910;2024-02-21T01:39:02;11.38;;;3.45;;
55728;SDS011;41633;39.720;2.910;2024-02-21T01:41:30;12.38;;;3.50;;
55728;SDS011;41633;39.720;2.910;2024-02-21T01:43:58;11.48;;;3.47;;
55728;SDS011;41633;39.720;2.910;2024-02-21T01:46:25;13.45;;;4.10;;
55728;SDS011;41633;39.720;2.910;2024-02-21T01:48:57;16.13;;;4.40;;
55728;SDS011;41633;39.720;2.910;2024-02-21T01:51:24;14.27;;;4.20;;
55728;SDS011;41633;39.720;2.910;2024-02-21T01:53:50;12.45;;;4.07;;
55728;SDS011;41633;39.720;2.910;2024-02-21T01:56:18;11.77;;;4.28;;
55728;SDS011;41633;39.720;2.910;2024-02-21T01:58:46;15.73;;;4.90;;
55728;SDS011;41633;39.720;2.910;2024-02-21T02:01:14;13.00;;;4.40;;
55728;SDS011;41633;39.720;2.910;2024-02-21T02:03:46;11.90;;;3.90;;
55728;SDS011;41633;39.720;2.910;2024-02-21T02:06:14;13.27;;;3.58;;
55728;SDS011;41633;39.720;2.910;2024-02-21T02:08:40;10.80;;;3.45;;
55728;SDS011;41633;39.720;2.910;2024-02-21T02:11:07;13.02;;;3.55;;
55728;SDS011;41633;39.720;2.910;2024-02-21T02:13:36;10.63;;;2.97;;
55728;SDS011;41633;39.720;2.910;2024-02-21T02:16:02;9.60;;;2.97;;
55728;SDS011;41633;39.720;2.910;2024-02-21T02:18:29;10.45;;;3.05;;
55728;SDS011;41633;39.720;2.910;2024-02-21T02:20:55;8.52;;;2.72;;
55728;SDS011;41633;39.720;2.910;2024-02-21T02:25:56;9.68;;;3.13;;
55728;SDS011;41633;39.720;2.910;2024-02-21T02:28:25;9.93;;;2.83;;
55728;SDS011;41633;39.720;2.910;2024-02-21T02:30:51;10.40;;;2.85;;
55728;SDS011;41633;39.720;2.910;2024-02-21T02:33:18;10.27;;;2.70;;
55728;SDS011;41633;39.720;2.910;2024-02-21T02:35:46;10.48;;;2.40;;
55728;SDS011;41633;39.720;2.910;2024-02-21T02:38:12;8.73;;;2.40;;
55728;SDS011;41633;39.720;2.910;2024-02-21T02:40:41;9.98;;;2.40;;
55728;SDS011;41633;39.720;2.910;2024-02-21T02:43:07;8.02;;;2.17;;
55728;SDS011;41633;39.720;2.910;2024-02-21T02:45:34;9.27;;;2.30;;
55728;SDS011;41633;39.720;2.910;2024-02-21T02:48:00;9.57;;;2.47;;
55728;SDS011;41633;39.720;2.910;2024-02-21T02:50:26;8.38;;;2.47;;
55728;SDS011;41633;39.720;2.910;2024-02-21T02:52:54;9.55;;;2.42;;
55728;SDS011;41633;39.720;2.910;2024-02-21T02:55:21;8.68;;;2.47;;
55728;SDS011;41633;39.720;2.910;2024-02-21T02:57:48;8.18;;;2.22;;
55728;SDS011;41633;39.720;2.910;2024-02-21T03:00:14;8.43;;;2.13;;
55728;SDS011;41633;39.720;2.910;2024-02-21T03:02:41;8.75;;;2.45;;
55728;SDS011;41633;39.720;2.910;2024-02-21T03:05:14;7.13;;;1.95;;
55728;SDS011;41633;39.720;2.910;2024-02-21T03:07:42;8.52;;;2.10;;
55728;SDS011;41633;39.720;2.910;2024-02-21T03:10:10;7.93;;;2.20;;
55728;SDS011;41633;39.720;2.910;2024-02-21T03:12:39;10.27;;;2.47;;
55728;SDS011;41633;39.720;2.910;2024-02-21T03:15:06;8.43;;;1.90;;
55728;SDS011;41633;39.720;2.910;2024-02-21T03:17:33;7.25;;;2.00;;
55728;SDS011;41633;39.720;2.910;2024-02-21T03:20:02;9.55;;;2.38;;
55728;SDS011;41633;39.720;2.910;2024-02-21T03:22:36;9.10;;;2.30;;
55728;SDS011;41633;39.720;2.910;2024-02-21T03:25:03;8.90;;;2.10;;
55728;SDS011;41633;39.720;2.910;2024-02-21T03:27:30;8.38;;;1.67;;
55728;SDS011;41633;39.720;2.910;2024-02-21T03:29:58;8.68;;;1.98;;
55728;SDS011;41633;39.720;2.910;2024-02-21T03:32:24;7.85;;;2.00;;
55728;SDS011;41633;39.720;2.910;2024-02-21T03:34:50;7.75;;;2.10;;
55728;SDS011;41633;39.720;2.910;2024-02-21T03:37:20;9.20;;;2.25;;
55728;SDS011;41633;39.720;2.910;2024-02-21T03:39:48;7.97;;;1.98;;
55728;SDS011;41633;39.720;2.910;2024-02-21T03:42:21;6.93;;;1.92;;
55728;SDS011;41633;39.720;2.910;2024-02-21T03:44:47;7.38;;;2.22;;
55728;SDS011;41633;39.720;2.910;2024-02-21T03:47:14;9.00;;;2.17;;
55728;SDS011;41633;39.720;2.910;2024-02-21T03:49:40;8.20;;;2.10;;
55728;SDS011;41633;39.720;2.910;2024-02-21T03:52:06;8.13;;;2.30;;
55728;SDS011;41633;39.720;2.910;2024-02-21T03:54:33;8.63;;;1.92;;
55728;SDS011;41633;39.720;2.910;2024-02-21T03:57:00;8.45;;;2.05;;
55728;SDS011;41633;39.720;2.910;2024-02-21T03:59:28;7.15;;;2.03;;
55728;SDS011;41633;39.720;2.910;2024-02-21T04:01:56;8.20;;;2.20;;
55728;SDS011;41633;39.720;2.910;2024-02-21T04:04:23;7.80;;;2.15;;
55728;SDS011;41633;39.720;2.910;2024-02-21T04:06:50;7.90;;;2.30;;
55728;SDS011;41633;39.720;2.910;2024-02-21T04:09:18;8.00;;;2.25;;
55728;SDS011;41633;39.720;2.910;2024-02-21T04:11:44;8.80;;;2.13;;
55728;SDS011;41633;39.720;2.910;2024-02-21T04:14:10;8.75;;;2.13;;
55728;SDS011;41633;39.720;2.910;2024-02-21T04:16:36;6.95;;;2.08;;
55728;SDS011;41633;39.720;2.910;2024-02-21T04:19:04;6.72;;;1.80;;
55728;SDS011;41633;39.720;2.910;2024-02-21T04:21:33;5.13;;;1.52;;
55728;SDS011;41633;39.720;2.910;2024-02-21T04:24:02;7.82;;;1.95;;
55728;SDS011;41633;39.720;2.910;2024-02-21T04:26:32;6.90;;;2.00;;
55728;SDS011;41633;39.720;2.910;2024-02-21T04:28:58;8.82;;;2.10;;
55728;SDS011;41633;39.720;2.910;2024-02-21T04:31:25;8.35;;;1.83;;
55728;SDS011;41633;39.720;2.910;2024-02-21T04:33:53;8.65;;;2.30;;
55728;SDS011;41633;39.720;2.910;2024-02-21T04:36:19;6.45;;;1.90;;
55728;SDS011;41633;39.720;2.910;2024-02-21T04:38:46;6.07;;;1.80;;
55728;SDS011;41633;39.720;2.910;2024-02-21T04:41:12;8.50;;;2.15;;
55728;SDS011;41633;39.720;2.910;2024-02-21T04:43:39;7.00;;;1.73;;
55728;SDS011;41633;39.720;2.910;2024-02-21T04:46:05;6.70;;;1.77;;
55728;SDS011;41633;39.720;2.910;2024-02-21T04:48:32;8.85;;;2.00;;
55728;SDS011;41633;39.720;2.910;2024-02-21T04:50:58;6.85;;;1.92;;
55728;SDS011;41633;39.720;2.910;2024-02-21T04:53:25;6.97;;;1.80;;
55728;SDS011;41633;39.720;2.910;2024-02-21T04:55:54;9.77;;;1.90;;
55728;SDS011;41633;39.720;2.910;2024-02-21T04:58:23;8.85;;;1.73;;
55728;SDS011;41633;39.720;2.910;2024-02-21T05:00:50;7.68;;;2.00;;
55728;SDS011;41633;39.720;2.910;2024-02-21T05:03:19;8.45;;;2.10;;
55728;SDS011;41633;39.720;2.910;2024-02-21T05:05:46;6.85;;;1.98;;
55728;SDS011;41633;39.720;2.910;2024-02-21T05:08:14;7.45;;;2.13;;
55728;SDS011;41633;39.720;2.910;2024-02-21T05:10:40;7.72;;;1.88;;
55728;SDS011;41633;39.720;2.910;2024-02-21T05:13:07;6.78;;;1.75;;
55728;SDS011;41633;39.720;2.910;2024-02-21T05:15:38;8.95;;;2.10;;
55728;SDS011;41633;39.720;2.910;2024-02-21T05:18:05;7.63;;;2.08;;
55728;SDS011;41633;39.720;2.910;2024-02-21T05:20:31;7.63;;;1.77;;
55728;SDS011;41633;39.720;2.910;2024-02-21T05:23:00;7.95;;;1.95;;
55728;SDS011;41633;39.720;2.910;2024-02-21T05:25:28;7.78;;;2.03;;
55728;SDS011;41633;39.720;2.910;2024-02-21T05:27:54;8.13;;;1.95;;
55728;SDS011;41633;39.720;2.910;2024-02-21T05:30:26;7.55;;;2.10;;
55728;SDS011;41633;39.720;2.910;2024-02-21T05:32:54;10.15;;;2.55;;
55728;SDS011;41633;39.720;2.910;2024-02-21T05:35:29;9.27;;;2.40;;
55728;SDS011;41633;39.720;2.910;2024-02-21T05:37:57;10.65;;;2.33;;
55728;SDS011;41633;39.720;2.910;2024-02-21T05:40:25;9.13;;;2.30;;
55728;SDS011;41633;39.720;2.910;2024-02-21T05:42:53;8.45;;;1.88;;
55728;SDS011;41633;39.720;2.910;2024-02-21T05:45:19;6.93;;;1.92;;
55728;SDS011;41633;39.720;2.910;2024-02-21T05:47:45;8.80;;;2.13;;
55728;SDS011;41633;39.720;2.910;2024-02-21T05:50:12;7.15;;;2.00;;
55728;SDS011;41633;39.720;2.910;2024-02-21T05:52:39;7.82;;;2.55;;
55728;SDS011;41633;39.720;2.910;2024-02-21T05:55:06;10.38;;;2.10;;
55728;SDS011;41633;39.720;2.910;2024-02-21T05:57:34;7.13;;;1.90;;
55728;SDS011;41633;39.720;2.910;2024-02-21T06:00:03;7.88;;;2.30;;
55728;SDS011;41633;39.720;2.910;2024-02-21T06:02:31;8.00;;;2.42;;
55728;SDS011;41633;39.720;2.910;2024-02-21T06:04:58;9.55;;;2.60;;
55728;SDS011;41633;39.720;2.910;2024-02-21T06:07:26;9.30;;;2.50;;
55728;SDS011;41633;39.720;2.910;2024-02-21T06:09:52;8.32;;;2.33;;
55728;SDS011;41633;39.720;2.910;2024-02-21T06:12:22;7.25;;;2.15;;
55728;SDS011;41633;39.720;2.910;2024-02-21T06:14:50;11.57;;;2.63;;
55728;SDS011;41633;39.720;2.910;2024-02-21T06:17:19;8.95;;;2.42;;
55728;SDS011;41633;39.720;2.910;2024-02-21T06:19:49;8.43;;;2.15;;
55728;SDS011;41633;39.720;2.910;2024-02-21T06:22:16;8.68;;;2.70;;
55728;SDS011;41633;39.720;2.910;2024-02-21T06:24:44;10.25;;;2.45;;
55728;SDS011;41633;39.720;2.910;2024-02-21T06:27:12;8.63;;;2.25;;
55728;SDS011;41633;39.720;2.910;2024-02-21T06:29:41;8.48;;;2.80;;
55728;SDS011;41633;39.720;2.910;2024-02-21T06:32:08;8.65;;;2.80;;
55728;SDS011;41633;39.720;2.910;2024-02-21T06:34:36;9.45;;;2.70;;
55728;SDS011;41633;39.720;2.910;2024-02-21T06:37:03;8.68;;;2.85;;
55728;SDS011;41633;39.720;2.910;2024-02-21T06:39:30;7.93;;;2.70;;
55728;SDS011;41633;39.720;2.910;2024-02-21T06:41:59;7.10;;;2.40;;
55728;SDS011;41633;39.720;2.910;2024-02-21T06:44:28;6.18;;;2.50;;
55728;SDS011;41633;39.720;2.910;2024-02-21T06:46:58;8.63;;;3.05;;
55728;SDS011;41633;39.720;2.910;2024-02-21T06:49:25;9.35;;;2.63;;
55728;SDS011;41633;39.720;2.910;2024-02-21T06:51:51;8.48;;;2.40;;
55728;SDS011;41633;39.720;2.910;2024-02-21T06:54:19;10.90;;;3.47;;
55728;SDS011;41633;39.720;2.910;2024-02-21T06:56:46;12.38;;;4.00;;
55728;SDS011;41633;39.720;2.910;2024-02-21T06:59:13;11.88;;;4.03;;
55728;SDS011;41633;39.720;2.910;2024-02-21T07:01:46;8.20;;;2.85;;
55728;SDS011;41633;39.720;2.910;2024-02-21T07:04:15;9.63;;;3.25;;
55728;SDS011;41633;39.720;2.910;2024-02-21T07:06:41;9.27;;;3.13;;
55728;SDS011;41633;39.720;2.910;2024-02-21T07:09:08;9.73;;;3.15;;
55728;SDS011;41633;39.720;2.910;2024-02-21T07:11:34;11.05;;;3.97;;
55728;SDS011;41633;39.720;2.910;2024-02-21T07:14:00;11.05;;;3.92;;
55728;SDS011;41633;39.720;2.910;2024-02-21T07:16:26;10.98;;;4.25;;
55728;SDS011;41633;39.720;2.910;2024-02-21T07:18:53;11.23;;;5.28;;
55728;SDS011;41633;39.720;2.910;2024-02-21T07:21:19;20.17;;;8.43;;
55728;SDS011;41633;39.720;2.910;2024-02-21T07:23:47;23.67;;;9.30;;
55728;SDS011;41633;39.720;2.910;2024-02-21T07:26:13;21.80;;;10.05;;
55728;SDS011;41633;39.720;2.910;2024-02-21T07:28:39;18.60;;;8.30;;
55728;SDS011;41633;39.720;2.910;2024-02-21T07:31:06;21.75;;;10.50;;
55728;SDS011;41633;39.720;2.910;2024-02-21T07:33:39;24.10;;;11.27;;
55728;SDS011;41633;39.720;2.910;2024-02-21T07:36:06;17.98;;;8.73;;
55728;SDS011;41633;39.720;2.910;2024-02-21T07:38:33;14.55;;;6.05;;
55728;SDS011;41633;39.720;2.910;2024-02-21T07:40:59;14.52;;;6.15;;
55728;SDS011;41633;39.720;2.910;2024-02-21T07:43:29;13.93;;;5.65;;
55728;SDS011;41633;39.720;2.910;2024-02-21T07:45:57;15.98;;;6.85;;
55728;SDS011;41633;39.720;2.910;2024-02-21T07:48:27;14.93;;;5.70;;
55728;SDS011;41633;39.720;2.910;2024-02-21T07:50:54;12.05;;;4.75;;
55728;SDS011;41633;39.720;2.910;2024-02-21T07:53:21;13.23;;;4.28;;
55728;SDS011;41633;39.720;2.910;2024-02-21T07:55:47;11.52;;;3.65;;
55728;SDS011;41633;39.720;2.910;2024-02-21T07:58:15;10.18;;;3.15;;
55728;SDS011;41633;39.720;2.910;2024-02-21T08:00:46;13.45;;;4.28;;
55728;SDS011;41633;39.720;2.910;2024-02-21T08:03:14;10.32;;;3.60;;
55728;SDS011;41633;39.720;2.910;2024-02-21T08:05:42;11.02;;;4.00;;
55728;SDS011;41633;39.720;2.910;2024-02-21T08:08:09;10.32;;;3.67;;
55728;SDS011;41633;39.720;2.910;2024-02-21T08:10:35;13.02;;;4.00;;
55728;SDS011;41633;39.720;2.910;2024-02-21T08:13:05;13.15;;;3.80;;
55728;SDS011;41633;39.720;2.910;2024-02-21T08:15:33;11.95;;;4.00;;
55728;SDS011;41633;39.720;2.910;2024-02-21T08:18:01;12.45;;;3.78;;
55728;SDS011;41633;39.720;2.910;2024-02-21T08:20:32;15.00;;;5.55;;
55728;SDS011;41633;39.720;2.910;2024-02-21T08:23:00;18.88;;;6.28;;
55728;SDS011;41633;39.720;2.910;2024-02-21T08:25:28;19.00;;;6.20;;
55728;SDS011;41633;39.720;2.910;2024-02-21T08:27:57;19.13;;;6.05;;
55728;SDS011;41633;39.720;2.910;2024-02-21T08:30:27;36.70;;;9.00;;
55728;SDS011;41633;39.720;2.910;2024-02-21T08:32:53;28.92;;;7.35;;
55728;SDS011;41633;39.720;2.910;2024-02-21T08:35:20;22.15;;;6.90;;
55728;SDS011;41633;39.720;2.910;2024-02-21T08:37:48;38.13;;;8.38;;
55728;SDS011;41633;39.720;2.910;2024-02-21T08:40:18;39.15;;;8.45;;
55728;SDS011;41633;39.720;2.910;2024-02-21T08:42:49;28.63;;;7.30;;
55728;SDS011;41633;39.720;2.910;2024-02-21T08:45:20;37.78;;;8.60;;
55728;SDS011;41633;39.720;2.910;2024-02-21T08:47:46;27.40;;;7.53;;
55728;SDS011;41633;39.720;2.910;2024-02-21T08:50:13;24.85;;;6.53;;
55728;SDS011;41633;39.720;2.910;2024-02-21T08:52:39;19.98;;;5.80;;
55728;SDS011;41633;39.720;2.910;2024-02-21T08:55:07;13.45;;;4.50;;
55728;SDS011;41633;39.720;2.910;2024-02-21T08:57:34;12.10;;;4.72;;
55728;SDS011;41633;39.720;2.910;2024-02-21T09:00:04;13.00;;;4.55;;
55728;SDS011;41633;39.720;2.910;2024-02-21T09:02:37;15.20;;;5.18;;
55728;SDS011;41633;39.720;2.910;2024-02-21T09:05:09;12.38;;;5.07;;
55728;SDS011;41633;39.720;2.910;2024-02-21T09:07:36;15.00;;;6.05;;
55728;SDS011;41633;39.720;2.910;2024-02-21T09:10:03;12.73;;;5.50;;
55728;SDS011;41633;39.720;2.910;2024-02-21T09:12:32;13.50;;;5.88;;
55728;SDS011;41633;39.720;2.910;2024-02-21T09:15:00;13.65;;;5.22;;
55728;SDS011;41633;39.720;2.910;2024-02-21T09:17:27;12.15;;;5.63;;
55728;SDS011;41633;39.720;2.910;2024-02-21T09:19:56;10.85;;;4.85;;
55728;SDS011;41633;39.720;2.910;2024-02-21T09:22:26;15.32;;;5.00;;
55728;SDS011;41633;39.720;2.910;2024-02-21T09:24:53;12.32;;;4.80;;
55728;SDS011;41633;39.720;2.910;2024-02-21T09:27:21;15.13;;;8.30;;
55728;SDS011;41633;39.720;2.910;2024-02-21T09:29:48;19.00;;;10.80;;
55728;SDS011;41633;39.720;2.910;2024-02-21T09:32:15;21.30;;;10.82;;
55728;SDS011;41633;39.720;2.910;2024-02-21T09:34:41;17.27;;;9.95;;
55728;SDS011;41633;39.720;2.910;2024-02-21T09:37:08;17.48;;;9.43;;
55728;SDS011;41633;39.720;2.910;2024-02-21T09:39:35;13.13;;;5.53;;
55728;SDS011;41633;39.720;2.910;2024-02-21T09:42:06;11.27;;;3.88;;
55728;SDS011;41633;39.720;2.910;2024-02-21T09:44:33;9.88;;;2.95;;
55728;SDS011;41633;39.720;2.910;2024-02-21T09:47:03;7.82;;;2.10;;
55728;SDS011;41633;39.720;2.910;2024-02-21T09:49:31;9.98;;;2.10;;
55728;SDS011;41633;39.720;2.910;2024-02-21T09:52:02;11.18;;;2.30;;
55728;SDS011;41633;39.720;2.910;2024-02-21T09:54:29;10.25;;;2.28;;
55728;SDS011;41633;39.720;2.910;2024-02-21T09:56:58;12.23;;;4.43;;
55728;SDS011;41633;39.720;2.910;2024-02-21T09:59:33;9.35;;;2.80;;
55728;SDS011;41633;39.720;2.910;2024-02-21T10:02:00;9.38;;;2.90;;
55728;SDS011;41633;39.720;2.910;2024-02-21T10:04:28;8.75;;;2.85;;
55728;SDS011;41633;39.720;2.910;2024-02-21T10:07:01;8.50;;;2.20;;
55728;SDS011;41633;39.720;2.910;2024-02-21T10:09:29;7.78;;;1.95;;
55728;SDS011;41633;39.720;2.910;2024-02-21T10:11:56;9.55;;;2.17;;
55728;SDS011;41633;39.720;2.910;2024-02-21T10:14:32;7.03;;;1.70;;
55728;SDS011;41633;39.720;2.910;2024-02-21T10:16:59;6.38;;;1.65;;
55728;SDS011;41633;39.720;2.910;2024-02-21T10:19:28;9.77;;;1.75;;
55728;SDS011;41633;39.720;2.910;2024-02-21T10:22:09;9.63;;;1.92;;
55728;SDS011;41633;39.720;2.910;2024-02-21T10:24:36;8.30;;;1.60;;
55728;SDS011;41633;39.720;2.910;2024-02-21T10:27:09;5.55;;;1.40;;
55728;SDS011;41633;39.720;2.910;2024-02-21T10:29:36;7.57;;;2.10;;
55728;SDS011;41633;39.720;2.910;2024-02-21T10:32:06;8.52;;;2.25;;
55728;SDS011;41633;39.720;2.910;2024-02-21T10:34:32;7.35;;;1.92;;
55728;SDS011;41633;39.720;2.910;2024-02-21T10:37:01;8.65;;;2.05;;
55728;SDS011;41633;39.720;2.910;2024-02-21T10:39:28;8.48;;;2.15;;
55728;SDS011;41633;39.720;2.910;2024-02-21T10:41:55;8.95;;;2.80;;
55728;SDS011;41633;39.720;2.910;2024-02-21T10:44:22;9.82;;;2.95;;
55728;SDS011;41633;39.720;2.910;2024-02-21T10:46:49;11.25;;;3.50;;
55728;SDS011;41633;39.720;2.910;2024-02-21T10:49:27;11.07;;;3.75;;
55728;SDS011;41633;39.720;2.910;2024-02-21T10:52:03;10.32;;;2.83;;
55728;SDS011;41633;39.720;2.910;2024-02-21T10:54:48;10.52;;;3.40;;
55728;SDS011;41633;39.720;2.910;2024-02-21T10:57:22;9.68;;;3.40;;
55728;SDS011;41633;39.720;2.910;2024-02-21T10:59:50;8.68;;;3.10;;
55728;SDS011;41633;39.720;2.910;2024-02-21T11:02:19;8.75;;;2.42;;
55728;SDS011;41633;39.720;2.910;2024-02-21T11:04:45;10.52;;;3.03;;
55728;SDS011;41633;39.720;2.910;2024-02-21T11:07:13;8.20;;;2.53;;
55728;SDS011;41633;39.720;2.910;2024-02-21T11:09:40;7.80;;;2.05;;
55728;SDS011;41633;39.720;2.910;2024-02-21T11:12:07;10.95;;;4.18;;
55728;SDS011;41633;39.720;2.910;2024-02-21T11:14:34;8.35;;;1.90;;
55728;SDS011;41633;39.720;2.910;2024-02-21T11:17:02;7.43;;;2.13;;
55728;SDS011;41633;39.720;2.910;2024-02-21T11:19:29;9.95;;;2.00;;
55728;SDS011;41633;39.720;2.910;2024-02-21T11:21:57;10.93;;;2.10;;
55728;SDS011;41633;39.720;2.910;2024-02-21T11:26:53;8.88;;;2.22;;
55728;SDS011;41633;39.720;2.910;2024-02-21T11:29:24;9.13;;;2.80;;
55728;SDS011;41633;39.720;2.910;2024-02-21T11:31:51;14.15;;;3.00;;
55728;SDS011;41633;39.720;2.910;2024-02-21T11:34:17;8.13;;;1.73;;
55728;SDS011;41633;39.720;2.910;2024-02-21T11:36:51;8.15;;;2.47;;
55728;SDS011;41633;39.720;2.910;2024-02-21T11:39:21;9.02;;;2.10;;
55728;SDS011;41633;39.720;2.910;2024-02-21T11:42:05;8.75;;;2.53;;
55728;SDS011;41633;39.720;2.910;2024-02-21T11:44:33;10.77;;;2.13;;
55728;SDS011;41633;39.720;2.910;2024-02-21T11:47:00;7.38;;;2.25;;
55728;SDS011;41633;39.720;2.910;2024-02-21T11:49:28;9.80;;;2.50;;
55728;SDS011;41633;39.720;2.910;2024-02-21T11:51:59;9.02;;;2.03;;
55728;SDS011;41633;39.720;2.910;2024-02-21T11:54:26;11.27;;;2.05;;
55728;SDS011;41633;39.720;2.910;2024-02-21T11:56:52;8.82;;;1.83;;
55728;SDS011;41633;39.720;2.910;2024-02-21T11:59:18;8.52;;;2.13;;
55728;SDS011;41633;39.720;2.910;2024-02-21T12:01:46;9.63;;;2.20;;
55728;SDS011;41633;39.720;2.910;2024-02-21T12:04:13;10.20;;;2.40;;
55728;SDS011;41633;39.720;2.910;2024-02-21T12:06:41;8.48;;;1.75;;
55728;SDS011;41633;39.720;2.910;2024-02-21T12:09:07;7.55;;;1.95;;
55728;SDS011;41633;39.720;2.910;2024-02-21T12:11:36;11.52;;;2.33;;
55728;SDS011;41633;39.720;2.910;2024-02-21T12:14:05;9.88;;;2.03;;
55728;SDS011;41633;39.720;2.910;2024-02-21T12:16:33;8.68;;;1.73;;
55728;SDS011;41633;39.720;2.910;2024-02-21T12:19:02;6.80;;;1.58;;
55728;SDS011;41633;39.720;2.910;2024-02-21T12:21:36;8.60;;;1.95;;
55728;SDS011;41633;39.720;2.910;2024-02-21T12:24:24;6.95;;;1.90;;
55728;SDS011;41633;39.720;2.910;2024-02-21T12:26:52;11.15;;;2.20;;
55728;SDS011;41633;39.720;2.910;2024-02-21T12:29:19;10.15;;;2.65;;
55728;SDS011;41633;39.720;2.910;2024-02-21T12:31:47;12.48;;;2.72;;
55728;SDS011;41633;39.720;2.910;2024-02-21T12:34:14;7.78;;;1.85;;
55728;SDS011;41633;39.720;2.910;2024-02-21T12:36:42;10.02;;;2.00;;
55728;SDS011;41633;39.720;2.910;2024-02-21T12:39:09;9.52;;;2.30;;
55728;SDS011;41633;39.720;2.910;2024-02-21T12:41:35;6.20;;;1.80;;
55728;SDS011;41633;39.720;2.910;2024-02-21T12:44:04;8.15;;;1.50;;
55728;SDS011;41633;39.720;2.910;2024-02-21T12:46:37;9.73;;;2.10;;
55728;SDS011;41633;39.720;2.910;2024-02-21T12:49:07;7.05;;;1.88;;
55728;SDS011;41633;39.720;2.910;2024-02-21T12:51:35;9.65;;;1.90;;
55728;SDS011;41633;39.720;2.910;2024-02-21T12:54:01;7.00;;;1.83;;
55728;SDS011;41633;39.720;2.910;2024-02-21T12:56:35;8.98;;;2.15;;
55728;SDS011;41633;39.720;2.910;2024-02-21T12:59:03;7.15;;;1.90;;
55728;SDS011;41633;39.720;2.910;2024-02-21T13:01:29;7.75;;;1.60;;
55728;SDS011;41633;39.720;2.910;2024-02-21T13:03:56;7.63;;;2.05;;
55728;SDS011;41633;39.720;2.910;2024-02-21T13:06:25;8.95;;;1.70;;
55728;SDS011;41633;39.720;2.910;2024-02-21T13:08:52;8.00;;;1.83;;
55728;SDS011;41633;39.720;2.910;2024-02-21T13:11:20;9.35;;;1.80;;
55728;SDS011;41633;39.720;2.910;2024-02-21T13:13:47;7.88;;;2.28;;
55728;SDS011;41633;39.720;2.910;2024-02-21T13:16:14;8.07;;;1.88;;
55728;SDS011;41633;39.720;2.910;2024-02-21T13:18:41;7.40;;;1.90;;
55728;SDS011;41633;39.720;2.910;2024-02-21T13:21:08;5.82;;;1.70;;
55728;SDS011;41633;39.720;2.910;2024-02-21T13:23:34;8.70;;;1.98;;
55728;SDS011;41633;39.720;2.910;2024-02-21T13:26:00;7.80;;;2.20;;
55728;SDS011;41633;39.720;2.910;2024-02-21T13:28:28;6.63;;;2.08;;
55728;SDS011;41633;39.720;2.910;2024-02-21T13:30:54;7.28;;;2.28;;
55728;SDS011;41633;39.720;2.910;2024-02-21T13:33:21;7.22;;;2.00;;
55728;SDS011;41633;39.720;2.910;2024-02-21T13:35:50;8.13;;;2.03;;
55728;SDS011;41633;39.720;2.910;2024-02-21T13:38:19;8.20;;;1.88;;
55728;SDS011;41633;39.720;2.910;2024-02-21T13:40:46;7.78;;;2.40;;
55728;SDS011;41633;39.720;2.910;2024-02-21T13:43:14;8.40;;;2.03;;
55728;SDS011;41633;39.720;2.910;2024-02-21T13:45:45;8.30;;;1.88;;
55728;SDS011;41633;39.720;2.910;2024-02-21T13:48:24;6.35;;;1.60;;
55728;SDS011;41633;39.720;2.910;2024-02-21T13:50:50;8.45;;;1.98;;
55728;SDS011;41633;39.720;2.910;2024-02-21T13:53:17;10.07;;;1.80;;
55728;SDS011;41633;39.720;2.910;2024-02-21T13:55:46;7.85;;;1.80;;
55728;SDS011;41633;39.720;2.910;2024-02-21T13:58:14;8.63;;;1.92;;
55728;SDS011;41633;39.720;2.910;2024-02-21T14:00:41;8.20;;;2.10;;
55728;SDS011;41633;39.720;2.910;2024-02-21T14:03:12;6.78;;;1.52;;
55728;SDS011;41633;39.720;2.910;2024-02-21T14:05:38;8.85;;;1.92;;
55728;SDS011;41633;39.720;2.910;2024-02-21T14:08:06;7.15;;;1.58;;
55728;SDS011;41633;39.720;2.910;2024-02-21T14:10:33;8.30;;;1.88;;
55728;SDS011;41633;39.720;2.910;2024-02-21T14:13:00;7.80;;;1.95;;
55728;SDS011;41633;39.720;2.910;2024-02-21T14:15:27;7.00;;;1.70;;
55728;SDS011;41633;39.720;2.910;2024-02-21T14:17:53;6.72;;;1.73;;
55728;SDS011;41633;39.720;2.910;2024-02-21T14:20:24;10.13;;;1.77;;
55728;SDS011;41633;39.720;2.910;2024-02-21T14:22:50;7.35;;;1.77;;
55728;SDS011;41633;39.720;2.910;2024-02-21T14:25:18;9.45;;;1.77;;
55728;SDS011;41633;39.720;2.910;2024-02-21T14:27:44;7.57;;;1.63;;
55728;SDS011;41633;39.720;2.910;2024-02-21T14:30:10;6.93;;;1.63;;
55728;SDS011;41633;39.720;2.910;2024-02-21T14:32:39;6.95;;;1.77;;
55728;SDS011;41633;39.720;2.910;2024-02-21T14:35:06;7.53;;;2.00;;
55728;SDS011;41633;39.720;2.910;2024-02-21T14:37:32;8.13;;;1.83;;
55728;SDS011;41633;39.720;2.910;2024-02-21T14:40:00;6.90;;;1.40;;
55728;SDS011;41633;39.720;2.910;2024-02-21T14:42:28;7.18;;;2.22;;
55728;SDS011;41633;39.720;2.910;2024-02-21T14:44:55;8.27;;;1.90;;
55728;SDS011;41633;39.720;2.910;2024-02-21T14:47:32;7.35;;;2.08;;
55728;SDS011;41633;39.720;2.910;2024-02-21T14:49:59;9.88;;;1.92;;
55728;SDS011;41633;39.720;2.910;2024-02-21T14:52:26;8.10;;;2.88;;